Tiempo atmosférico en la estación meteorológica de Valmadrid, Zaragoza (535 m.)



Fecha
DESCASC
Temp. máxima en grados centígrados (hora)
DESCASC
Temp. mínima en grados centígrados (hora)
DESCASC
Temp. media en grados centígrados
DESCASC
Racha de viento máxima en m/sg (hora)
DESCASC
Velocidad máxima media en intervalos de 10 minutos(hora)
DESCASC
Precipitaciones diarias en mm
DESCASC
Precipitaciones de 00:00 a 06:00 en mm
DESCASC
Precipitaciones de 06:00 a 12:00 en mm
DESCASC
Precipitaciones de 12:00 a 18:00 en mm
DESCASC
Precipitaciones de 18:00 a 24:00 en mm
DESCASC
15-08-2019 29.5 (16:50) 18 (07:00) 23.8 13.89 (09:50) 10 (09:50) 0 0 0 0 0
14-08-2019 31.2 (16:50) 15.7 (00:00) 23.5 14.44 (00:30) 10 (00:10) 0 0 0 0 0
13-08-2019 25.7 (16:40) 13.8 (00:00) 19.8 16.11 (23:30) 11.39 (23:40) 0 0 0 0 0
12-08-2019 24.8 (16:20) 14.6 (00:00) 19.7 16.67 (13:50) 12.22 (14:00) 0 0 0 0 0
11-08-2019 30.1 (16:50) 17.3 (00:00) 23.7 15 (23:10) 9.72 (23:20) 0 0 0 0 0
10-08-2019 31.7 (18:50) 19.4 (00:00) 25.6 10.28 (00:30) 7.78 (00:30) 0 0 0 0 0
09-08-2019 37.5 (16:30) 22.6 (00:00) 30.1 15.56 (23:50) 9.17 (22:30) 0 0 0 0 0
08-08-2019 36.7 (17:00) 19.4 (00:00) 28.1 9.44 (09:30) 5 (09:40) 0 0 0 0 0
07-08-2019 30.4 (14:30) 19.9 (00:00) 25.1 12.78 (01:50) 8.61 (01:50) 0 0 0 0 0
06-08-2019 36.6 (16:20) 17.8 (00:00) 27.2 7.5 (13:30) 4.44 (09:10) 0 0 0 0 0
05-08-2019 35 (18:30) 18.4 (00:00) 26.7 -- (--) -- (--) 0 0 0 0 0
04-08-2019 35.9 (16:30) 17 (00:00) 26.5 11.39 (20:40) 6.94 (20:30) 0 0 0 0 0
03-08-2019 35.4 (17:20) 17.4 (00:00) 26.4 10.56 (20:50) 5.28 (20:40) 0 0 0 0 0
02-08-2019 33.3 (16:10) 17.5 (00:00) 25.4 16.11 (02:20) 11.11 (01:40) 0 0 0 0 0
01-08-2019 33 (18:20) 17.8 (00:00) 25.4 14.44 (23:59) 10.28 (23:30) 0 0 0 0 0
31-07-2019 29.9 (19:10) 14 (00:00) 21.9 13.61 (04:50) 9.72 (04:50) 0 0 0 0 0
30-07-2019 26.7 (16:50) 14.9 (00:00) 20.8 20.83 (01:30) 14.72 (01:40) 0 0 0 0 0
29-07-2019 33.4 (17:30) 13.5 (00:00) 23.5 17.5 (23:59) 12.5 (23:59) 0 0 0 0 0
28-07-2019 27 (17:40) 13.9 (00:00) 20.4 17.78 (06:30) 12.5 (06:10) 0 0 0 0 0
27-07-2019 25.7 (14:00) 15.8 (00:00) 20.8 15.28 (18:00) 11.11 (01:00) 0.4 0 0 0.2 0.2
26-07-2019 29 (16:40) 18.2 (00:00) 23.6 15.28 (23:00) 10 (21:40) 0.2 0 0 0 0.2
25-07-2019 36.8 (15:20) 21.2 (00:00) 29 10.28 (19:10) 6.67 (19:10) 0.2 0 0 0 0.2
24-07-2019 37.8 (16:50) 20.7 (00:00) 29.3 12.78 (19:40) 7.5 (19:40) 0 0 0 0 0
23-07-2019 38.4 (16:50) 19.4 (00:00) 28.9 11.11 (17:20) 7.22 (20:10) 0 0 0 0 0
22-07-2019 37.6 (17:00) 17.8 (00:00) 27.7 9.17 (15:20) 5.83 (18:40) 0 0 0 0 0
21-07-2019 35.4 (18:00) 18.5 (00:00) 27 9.44 (21:30) 6.11 (21:30) 0 0 0 0 0
20-07-2019 35.8 (17:00) 17.6 (07:00) 26.7 10 (17:20) 5.28 (19:10) 0 0 0 0 0
19-07-2019 32.7 (19:00) 17.3 (00:00) 25 10.28 (01:00) 6.39 (00:30) 0 0 0 0 0

Gráficas

Temp. máximas Temp. mínimas Temp. medias Precipitaciones Rachas de viento máximas Velocidades máximas media en intervalos de 10 minutos

Datos horarios

Fecha y hora oficial Temperatura (ºC) Velocidad del viento (km/h) Dirección del viento Racha (km/h) Dirección de racha Precipitación (mm) Presión (hPa) Tendencia (hPa) Humedad (%)
2019-08-17 23:00:00 26.6 11 Sudeste 33 Este 0 -- -- 58
2019-08-17 22:00:00 28 17 Sudeste 32 Sudeste 0 -- -- 51
2019-08-17 21:00:00 29.8 17 Este 38 Este 0 -- -- 48
2019-08-17 20:00:00 32.8 25 Este 37 Este 0 -- -- 38
2019-08-17 19:00:00 34.8 14 Este 30 Este 0 -- -- 26
2019-08-17 18:00:00 35.1 15 Este 28 Este 0 -- -- 26
2019-08-17 17:00:00 35.9 11 Nordeste 25 Norte 0 -- -- 25
2019-08-17 16:00:00 35.4 10 Nordeste 22 Norte 0 -- -- 29
2019-08-17 15:00:00 34.5 11 Norte 25 Norte 0 -- -- 34
2019-08-17 14:00:00 32.5 8 Este 15 Nordeste 0 -- -- 38
2019-08-17 13:00:00 30.8 5 Nordeste 17 Nordeste 0 -- -- 42
2019-08-17 12:00:00 28.2 9 Norte 16 Norte 0 -- -- 49
2019-08-17 11:00:00 27.1 6 Nordeste 16 Norte 0 -- -- 54
2019-08-17 10:00:00 24.8 5 Norte 11 Norte 0 -- -- 65
2019-08-17 09:00:00 22.9 2 Este 8 Sudeste 0 -- -- 67
2019-08-17 08:00:00 18.2 7 Sudeste 9 Sudeste 0 -- -- 87
2019-08-17 07:00:00 17.5 5 Sudeste 10 Sudeste 0 -- -- 87
2019-08-17 06:00:00 18.2 2 Sur 5 Oeste 0 -- -- 84
2019-08-17 05:00:00 20 3 Noroeste 12 Este 0 -- -- 79
2019-08-17 04:00:00 21.9 4 Sudeste 27 Este 0 -- -- 72
2019-08-17 03:00:00 23 9 Sudeste 17 Este 0 -- -- 67
2019-08-17 02:00:00 24.3 2 Sudeste 12 Sur 0 -- -- 61
2019-08-17 01:00:00 25 6 Sur 13 Sur 0 -- -- 58
2019-08-17 00:00:00 25.1 7 Sur 22 Sudeste 0 -- -- 55
2019-08-16 23:00:00 26.4 13 Este 23 Este 0 -- -- 50
2019-08-16 22:00:00 24.5 2 Oeste 9 Nordeste 0 -- -- 41
2019-08-16 21:00:00 29.1 5 Este 19 Nordeste 0 -- -- 32
2019-08-16 20:00:00 30.9 10 Este 23 Este 0 -- -- 28
2019-08-16 19:00:00 31.7 9 Este 24 Este 0 -- -- 27
2019-08-16 18:00:00 31.4 12 Este 22 Este 0 -- -- 28
2019-08-16 17:00:00 31.9 9 Este 21 Norte 0 -- -- 26
2019-08-16 16:00:00 31.4 9 Este 22 Este 0 -- -- 26
2019-08-16 15:00:00 29.9 9 Este 23 Este 0 -- -- 30
2019-08-16 14:00:00 28.6 8 Sudeste 22 Sudeste 0 -- -- 30
2019-08-16 13:00:00 28.2 7 Nordeste 16 Nordeste 0 -- -- 32
2019-08-16 12:00:00 26.1 6 Norte 15 Nordeste 0 -- -- 35
2019-08-16 11:00:00 23.9 4 Nordeste 10 Norte 0 -- -- 40
2019-08-16 10:00:00 21.7 3 Noroeste 11 Norte 0 -- -- 46
2019-08-16 09:00:00 19 6 Este 13 Este 0 -- -- 53
2019-08-16 08:00:00 14.9 5 Sudeste 12 Sudeste 0 -- -- 66
2019-08-16 07:00:00 14.1 7 Sudeste 11 Este 0 -- -- 67
2019-08-16 06:00:00 16 4 Sudeste 18 Noroeste 0 -- -- 60
2019-08-16 05:00:00 15.8 4 Sudoeste 19 Oeste 0 -- -- 63
2019-08-16 04:00:00 16.3 4 Sudoeste 16 Sudoeste 0 -- -- 63
2019-08-16 03:00:00 17.4 6 Sudoeste 16 Sudoeste 0 -- -- 59
2019-08-16 02:00:00 18.2 8 Sur 24 Noroeste 0 -- -- 57
2019-08-16 01:00:00 19.6 7 Nordeste 30 Oeste 0 -- -- 53
2019-08-16 00:00:00 19.9 19 Oeste 36 Oeste 0 -- -- 50
2019-08-15 23:00:00 21.4 21 Oeste 39 Oeste 0 -- -- 40
2019-08-15 22:00:00 22.4 18 Oeste 32 Oeste 0 -- -- 42
2019-08-15 21:00:00 23.8 21 Noroeste 40 Noroeste 0 -- -- 38
2019-08-15 20:00:00 26.5 25 Noroeste 43 Oeste 0 -- -- 32
2019-08-15 19:00:00 27.8 29 Noroeste 39 Noroeste 0 -- -- 31
2019-08-15 18:00:00 29.1 24 Noroeste 39 Noroeste 0 -- -- 29
2019-08-15 17:00:00 29.3 25 Noroeste 42 Noroeste 0 -- -- 28
2019-08-15 16:00:00 29.1 25 Noroeste 37 Noroeste 0 -- -- 35
2019-08-15 15:00:00 28.1 23 Noroeste 39 Noroeste 0 -- -- 41
2019-08-15 14:00:00 27.7 21 Noroeste 38 Noroeste 0 -- -- 44
2019-08-15 13:00:00 26.5 22 Noroeste 36 Oeste 0 -- -- 47
2019-08-15 12:00:00 25.9 19 Noroeste 35 Oeste 0 -- -- 48
2019-08-15 11:00:00 23.9 26 Oeste 44 Oeste 0 -- -- 53
2019-08-15 10:00:00 21.8 34 Oeste 50 Oeste 0 -- -- 62
2019-08-15 09:00:00 20.4 26 Oeste 43 Oeste 0 -- -- 67
2019-08-15 08:00:00 18.9 23 Oeste 39 Oeste 0 -- -- 74
2019-08-15 07:00:00 18 11 Oeste 32 Noroeste 0 -- -- 77
2019-08-15 06:00:00 18.4 12 Oeste 28 Sudoeste 0 -- -- 74
2019-08-15 05:00:00 18.7 12 Oeste 26 Oeste 0 -- -- 73
2019-08-15 04:00:00 19.2 10 Oeste 28 Oeste 0 -- -- 69
2019-08-15 03:00:00 19.7 15 Oeste 29 Oeste 0 -- -- 66
2019-08-15 02:00:00 21 12 Oeste 34 Oeste 0 -- -- 59
2019-08-15 01:00:00 22.2 24 Oeste 36 Oeste 0 -- -- 52
2019-08-15 00:00:00 22.9 25 Oeste 36 Oeste 0 -- -- 48
2019-08-14 23:00:00 23.6 16 Oeste 23 Oeste 0 -- -- 44
2019-08-14 22:00:00 25.1 18 Noroeste 27 Noroeste 0 -- -- 38
2019-08-14 21:00:00 26.1 9 Noroeste 25 Noroeste 0 -- -- 30
2019-08-14 20:00:00 29.3 20 Noroeste 31 Oeste 0 -- -- 25
2019-08-14 19:00:00 30.6 18 Noroeste 32 Noroeste 0 -- -- 23
2019-08-14 18:00:00 31.1 17 Noroeste 27 Noroeste 0 -- -- 22
2019-08-14 17:00:00 30.9 14 Noroeste 31 Oeste 0 -- -- 22
2019-08-14 16:00:00 30.6 19 Noroeste 35 Norte 0 -- -- 22
2019-08-14 15:00:00 30.6 20 Noroeste 34 Oeste 0 -- -- 21
2019-08-14 14:00:00 29.8 18 Noroeste 31 Noroeste 0 -- -- 22
2019-08-14 13:00:00 28.1 16 Oeste 31 Oeste 0 -- -- 25
2019-08-14 12:00:00 25.8 18 Oeste 27 Oeste 0 -- -- 29
2019-08-14 11:00:00 23.5 12 Oeste 27 Oeste 0 -- -- 36
2019-08-14 10:00:00 22.1 15 Oeste 24 Sudoeste 0 -- -- 39
2019-08-14 09:00:00 20.2 5 Noroeste 31 Oeste 0 -- -- 43
2019-08-14 08:00:00 17.7 19 Oeste 29 Oeste 0 -- -- 51
2019-08-14 07:00:00 16.9 9 Sur 28 Sudoeste 0 -- -- 53
2019-08-14 06:00:00 16.8 6 Sur 21 Sudoeste 0 -- -- 53
2019-08-14 05:00:00 16.7 16 Sudoeste 30 Oeste 0 -- -- 56
2019-08-14 04:00:00 15.9 14 Oeste 43 Oeste 0 -- -- 57
2019-08-14 03:00:00 16.8 32 Oeste 44 Sudoeste 0 -- -- 50
2019-08-14 02:00:00 17 21 Oeste 45 Sudoeste 0 -- -- 50
2019-08-14 01:00:00 17.4 23 Oeste 52 Oeste 0 -- -- 50
2019-08-14 00:00:00 18.6 40 Oeste 58 Oeste 0 -- -- 47
2019-08-13 23:00:00 19.3 37 Oeste 51 Oeste 0 -- -- 45
2019-08-13 22:00:00 19.5 20 Oeste 36 Oeste 0 -- -- 44
2019-08-13 21:00:00 21 22 Noroeste 40 Oeste 0 -- -- 37
2019-08-13 20:00:00 23.4 20 Noroeste 37 Noroeste 0 -- -- 34
2019-08-13 19:00:00 24.3 26 Noroeste 40 Noroeste 0 -- -- 31
2019-08-13 18:00:00 25.1 23 Noroeste 37 Noroeste 0 -- -- 31
2019-08-13 17:00:00 25.5 28 Noroeste 40 Noroeste 0 -- -- 31
2019-08-13 16:00:00 25 26 Noroeste 42 Oeste 0 -- -- 33
2019-08-13 15:00:00 24.2 26 Noroeste 44 Noroeste 0 -- -- 34
2019-08-13 14:00:00 23.2 25 Noroeste 41 Noroeste 0 -- -- 34
2019-08-13 13:00:00 22 26 Oeste 41 Oeste 0 -- -- 39
2019-08-13 12:00:00 20.9 28 Noroeste 46 Oeste 0 -- -- 41
2019-08-13 11:00:00 19 31 Noroeste 40 Noroeste 0 -- -- 48
2019-08-13 10:00:00 16.5 22 Noroeste 44 Oeste 0 -- -- 55
2019-08-13 09:00:00 15 29 Oeste 42 Oeste 0 -- -- 60
2019-08-13 08:00:00 14.4 24 Oeste 42 Oeste 0 -- -- 58
2019-08-13 07:00:00 14 23 Oeste 45 Noroeste 0 -- -- 61
2019-08-13 06:00:00 14.1 15 Oeste 40 Oeste 0 -- -- 61
2019-08-13 05:00:00 14.5 20 Oeste 41 Oeste 0 -- -- 61
2019-08-13 04:00:00 14.5 26 Oeste 42 Noroeste 0 -- -- 63
2019-08-13 03:00:00 14.3 20 Oeste 42 Noroeste 0 -- -- 64
2019-08-13 02:00:00 14.2 30 Oeste 51 Oeste 0 -- -- 65
2019-08-13 01:00:00 14.5 27 Oeste 44 Oeste 0 -- -- 63
2019-08-13 00:00:00 15 31 Noroeste 50 Noroeste 0 -- -- 63
2019-08-12 23:00:00 15.7 34 Noroeste 54 Noroeste 0 -- -- 61
2019-08-12 22:00:00 17 32 Noroeste 56 Noroeste 0 -- -- 55
2019-08-12 21:00:00 18.5 34 Oeste 54 Noroeste 0 -- -- 46
2019-08-12 20:00:00 20.7 36 Noroeste 55 Noroeste 0 -- -- 41
2019-08-12 19:00:00 22.5 36 Noroeste 52 Noroeste 0 -- -- 36
2019-08-12 18:00:00 23.6 34 Noroeste 54 Noroeste 0 -- -- 33
2019-08-12 17:00:00 24.6 33 Noroeste 53 Noroeste 0 -- -- 32
2019-08-12 16:00:00 24.2 34 Noroeste 55 Noroeste 0 -- -- 33
2019-08-12 15:00:00 23.6 41 Noroeste 57 Noroeste 0 -- -- 36
2019-08-12 14:00:00 22.9 44 Oeste 60 Oeste 0 -- -- 39
2019-08-12 13:00:00 22.4 32 Noroeste 45 Noroeste 0 -- -- 42
2019-08-12 12:00:00 20.5 28 Noroeste 46 Noroeste 0 -- -- 47
2019-08-12 11:00:00 19.5 32 Oeste 47 Noroeste 0 -- -- 49
2019-08-12 10:00:00 17.9 37 Oeste 50 Oeste 0 -- -- 56
2019-08-12 09:00:00 16.7 30 Oeste 45 Oeste 0 -- -- 63
2019-08-12 08:00:00 15.2 28 Oeste 42 Oeste 0 -- -- 70
2019-08-12 07:00:00 14.7 21 Noroeste 34 Oeste 0 -- -- 72
2019-08-12 06:00:00 15 19 Oeste 45 Oeste 0 -- -- 71
2019-08-12 05:00:00 15.4 24 Noroeste 38 Noroeste 0 -- -- 69
2019-08-12 04:00:00 15.5 19 Oeste 34 Oeste 0 -- -- 71
2019-08-12 03:00:00 16.3 22 Noroeste 46 Oeste 0 -- -- 70
2019-08-12 02:00:00 17 26 Oeste 55 Oeste 0 -- -- 66
2019-08-12 01:00:00 18 37 Oeste 56 Oeste 0 -- -- 63
2019-08-12 00:00:00 19 33 Oeste 54 Oeste 0 -- -- 59
2019-08-11 23:00:00 20.3 34 Oeste 50 Oeste 0 -- -- 54
2019-08-11 22:00:00 21.8 27 Oeste 43 Oeste 0 -- -- 49
2019-08-11 21:00:00 23.6 27 Oeste 43 Noroeste 0 -- -- 44
2019-08-11 20:00:00 26.2 26 Noroeste 35 Oeste 0 -- -- 37
2019-08-11 19:00:00 28.4 25 Noroeste 35 Oeste 0 -- -- 33
2019-08-11 18:00:00 29.2 22 Noroeste 39 Noroeste 0 -- -- 33
2019-08-11 17:00:00 29.6 18 Norte 40 Noroeste 0 -- -- 33
2019-08-11 16:00:00 29.8 18 Noroeste 36 Noroeste 0 -- -- 32
2019-08-11 15:00:00 28.8 23 Noroeste 40 Noroeste 0 -- -- 35
2019-08-11 14:00:00 27.2 22 Noroeste 42 Noroeste 0 -- -- 39
2019-08-11 13:00:00 25.7 21 Noroeste 33 Noroeste 0 -- -- 43
2019-08-11 12:00:00 23.7 22 Oeste 34 Oeste 0 -- -- 48
2019-08-11 11:00:00 22.4 22 Oeste 30 Noroeste 0 -- -- 55
2019-08-11 10:00:00 22.4 22 Noroeste 42 Oeste 0 -- -- 55
2019-08-11 09:00:00 19.4 31 Noroeste 45 Oeste 0 -- -- 67
2019-08-11 08:00:00 18.1 16 Oeste 33 Oeste 0 -- -- 72
2019-08-11 07:00:00 17.5 7 Oeste 21 Oeste 0 -- -- 74
2019-08-11 06:00:00 17.9 5 Sudoeste 15 Sudoeste 0 -- -- 71
2019-08-11 05:00:00 18.3 5 Sur 27 Sudoeste 0 -- -- 69
2019-08-11 04:00:00 19 19 Oeste 32 Oeste 0 -- -- 66
2019-08-11 03:00:00 19.5 13 Sudoeste 27 Sudoeste 0 -- -- 64
2019-08-11 02:00:00 21 3 Sudeste 14 Oeste 0 -- -- 60
2019-08-11 01:00:00 22.2 5 Oeste 14 Oeste 0 -- -- 57
2019-08-11 00:00:00 23 5 Noroeste 11 Norte 0 -- -- 50
2019-08-10 23:00:00 23.7 6 Sudeste 12 Noroeste 0 -- -- 44
2019-08-10 22:00:00 25.2 10 Noroeste 22 Noroeste 0 -- -- 41
2019-08-10 21:00:00 26.9 13 Noroeste 19 Oeste 0 -- -- 38
2019-08-10 20:00:00 30.4 9 Norte 21 Noroeste 0 -- -- 33
2019-08-10 19:00:00 31.2 12 Norte 23 Noroeste 0 -- -- 32
2019-08-10 18:00:00 31.4 16 Noroeste 24 Noroeste 0 -- -- 32
2019-08-10 17:00:00 31.2 11 Oeste 29 Noroeste 0 -- -- 32
2019-08-10 16:00:00 30.7 15 Norte 27 Noroeste 0 -- -- 32
2019-08-10 15:00:00 29.9 17 Noroeste 30 Noroeste 0 -- -- 34
2019-08-10 14:00:00 29 15 Noroeste 29 Oeste 0 -- -- 33
2019-08-10 13:00:00 29 7 Oeste 24 Noroeste 0 -- -- 35
2019-08-10 12:00:00 27.1 11 Noroeste 24 Noroeste 0 -- -- 37
2019-08-10 11:00:00 25.2 15 Oeste 24 Oeste 0 -- -- 43
2019-08-10 10:00:00 23.9 14 Oeste 22 Oeste 0 -- -- 46
2019-08-10 09:00:00 21.9 15 Noroeste 24 Noroeste 0 -- -- 51
2019-08-10 08:00:00 20.2 11 Oeste 30 Oeste 0 -- -- 55
2019-08-10 07:00:00 20.1 20 Oeste 34 Oeste 0 -- -- 55
2019-08-10 06:00:00 19.9 18 Oeste 31 Oeste 0 -- -- 58
2019-08-10 05:00:00 20 14 Oeste 31 Oeste 0 -- -- 59
2019-08-10 04:00:00 20.8 18 Oeste 29 Oeste 0 -- -- 63
2019-08-10 03:00:00 21.4 17 Oeste 27 Oeste 0 -- -- 66
2019-08-10 02:00:00 21.8 13 Oeste 32 Oeste 0 -- -- 68
2019-08-10 01:00:00 22.9 19 Oeste 37 Oeste 0 -- -- 63
2019-08-10 00:00:00 23.8 29 Oeste 56 Oeste 0 -- -- 62
2019-08-09 23:00:00 25 28 Oeste 45 Noroeste 0 -- -- 63
2019-08-09 22:00:00 27.5 23 Oeste 42 Oeste 0 -- -- 51
2019-08-09 21:00:00 30.2 22 Noroeste 45 Sudoeste 0 -- -- 39
2019-08-09 20:00:00 35.2 21 Sudoeste 40 Sudoeste 0 -- -- 25
2019-08-09 19:00:00 36.4 18 Sudoeste 34 Sudoeste 0 -- -- 23
2019-08-09 18:00:00 36.4 20 Sudoeste 40 Sudoeste 0 -- -- 24
2019-08-09 17:00:00 37.4 16 Sudoeste 35 Oeste 0 -- -- 23
2019-08-09 16:00:00 36.8 23 Oeste 44 Oeste 0 -- -- 23
2019-08-09 15:00:00 36.2 22 Sudoeste 39 Sudoeste 0 -- -- 23
2019-08-09 14:00:00 35.8 15 Sudoeste 42 Sudoeste 0 -- -- 23
2019-08-09 13:00:00 34.4 16 Sudoeste 33 Sudoeste 0 -- -- 24
2019-08-09 12:00:00 33.2 22 Sudoeste 36 Sudoeste 0 -- -- 26
2019-08-09 11:00:00 31.5 18 Sudoeste 37 Sudoeste 0 -- -- 31
2019-08-09 10:00:00 30.3 18 Sudoeste 31 Sudoeste 0 -- -- 35
2019-08-09 09:00:00 28.8 11 Sudoeste 19 Sudoeste 0 -- -- 35
2019-08-09 08:00:00 25.2 3 Este 12 Sur 0 -- -- 42
2019-08-09 07:00:00 25 7 Sudoeste 14 Sur 0 -- -- 41
2019-08-09 06:00:00 23.2 4 Este 13 Sudeste 0 -- -- 46
2019-08-09 05:00:00 25.3 7 Sudeste 20 Oeste 0 -- -- 41
2019-08-09 04:00:00 27.6 13 Sudoeste 28 Sur 0 -- -- 36
2019-08-09 03:00:00 28.2 13 Sudoeste 24 Sudoeste 0 -- -- 34
2019-08-09 02:00:00 26.3 4 Sudeste 11 Sudoeste 0 -- -- 39
2019-08-09 01:00:00 25.9 6 Sudeste 12 Sur 0 -- -- 43
2019-08-09 00:00:00 28.9 6 Sur 16 Sudoeste 0 -- -- 38
2019-08-08 23:00:00 29.5 11 Sudoeste 18 Sur 0 -- -- 34
2019-08-08 22:00:00 29.9 12 Sudeste 18 Sudeste 0 -- -- 33
2019-08-08 21:00:00 31.7 11 Sudeste 24 Este 0 -- -- 30
2019-08-08 20:00:00 33.3 14 Este 24 Este 0 -- -- 29
2019-08-08 19:00:00 33.8 13 Este 24 Nordeste 0 -- -- 28
2019-08-08 18:00:00 34 8 Nordeste 27 Este 0 -- -- 28
2019-08-08 17:00:00 36.7 17 Oeste 34 Oeste 0 -- -- 25
2019-08-08 16:00:00 35.6 11 Sudoeste 28 Sudoeste 0 -- -- 26
2019-08-08 15:00:00 34.9 15 Oeste 26 Sudoeste 0 -- -- 27
2019-08-08 14:00:00 33.7 10 Oeste 26 Oeste 0 -- -- 29
2019-08-08 13:00:00 31.9 8 Sudoeste 24 Oeste 0 -- -- 32
2019-08-08 12:00:00 30.9 8 Sudoeste 22 Oeste 0 -- -- 32
2019-08-08 11:00:00 29 14 Oeste 30 Oeste 0 -- -- 36
2019-08-08 10:00:00 26.2 14 Sudoeste 34 Sudoeste 0 -- -- 42
2019-08-08 09:00:00 24.6 12 Sudoeste 25 Sudoeste 0 -- -- 45
2019-08-08 08:00:00 20.9 8 Sudeste 15 Sudoeste 0 -- -- 54
2019-08-08 07:00:00 22.3 13 Oeste 22 Sudoeste 0 -- -- 48
2019-08-08 06:00:00 21.5 11 Sudoeste 19 Sudoeste 0 -- -- 50
2019-08-08 05:00:00 21.1 6 Oeste 18 Oeste 0 -- -- 51
2019-08-08 04:00:00 22.6 9 Oeste 22 Sudoeste 0 -- -- 46
2019-08-08 03:00:00 23.8 11 Sudoeste 22 Oeste 0 -- -- 43
2019-08-08 02:00:00 24.3 7 Sudoeste 23 Sudoeste 0 -- -- 41
2019-08-08 01:00:00 24.7 12 Oeste 19 Oeste 0 -- -- 40
2019-08-08 00:00:00 25.2 8 Oeste 18 Sudoeste 0 -- -- 40
2019-08-07 23:00:00 27 10 Sudoeste 22 Sudoeste 0 -- -- 38
2019-08-07 22:00:00 27.4 8 Sudoeste 17 Oeste 0 -- -- 36
2019-08-07 21:00:00 27.6 5 Sudoeste 10 Sudoeste 0 -- -- 38
2019-08-07 20:00:00 28.4 5 Oeste 10 Oeste 0 -- -- 38
2019-08-07 19:00:00 28.8 5 Oeste 24 Oeste 0 -- -- 37
2019-08-07 18:00:00 29.4 10 Oeste 14 Oeste 0 -- -- 36
2019-08-07 17:00:00 29 8 Oeste 14 Oeste 0 -- -- 39
2019-08-07 16:00:00 28.3 7 Noroeste 15 Oeste 0 -- -- 48
2019-08-07 15:00:00 29.3 4 Sudeste 12 Noroeste 0 -- -- 37
2019-08-07 14:00:00 29.8 8 Noroeste 22 Oeste 0 -- -- 36
2019-08-07 13:00:00 29.9 16 Oeste 24 Oeste 0 -- -- 38
2019-08-07 12:00:00 27.9 17 Oeste 27 Noroeste 0 -- -- 43
2019-08-07 11:00:00 26.3 13 Oeste 22 Oeste 0 -- -- 49
2019-08-07 10:00:00 25.1 10 Oeste 23 Noroeste 0 -- -- 51
2019-08-07 09:00:00 22 6 Noroeste 23 Oeste 0 -- -- 61
2019-08-07 08:00:00 20.3 15 Oeste 22 Oeste 0 -- -- 68
2019-08-07 07:00:00 20.2 9 Sudoeste 15 Sudoeste 0 -- -- 68
2019-08-07 06:00:00 20.2 4 Noroeste 25 Oeste 0 -- -- 67
2019-08-07 05:00:00 20 18 Oeste 44 Oeste 0 -- -- 69
2019-08-07 04:00:00 20.7 28 Oeste 46 Noroeste 0 -- -- 68
2019-08-07 03:00:00 21.8 10 Noroeste 38 Noroeste 0 -- -- 65
2019-08-07 02:00:00 22.7 22 Oeste 46 Oeste 0 -- -- 63
2019-08-07 01:00:00 24.6 27 Oeste 40 Oeste 0 -- -- 59
2019-08-07 00:00:00 25.8 0 Calma 12 Sudoeste 0 -- -- 48
2019-08-06 23:00:00 28.2 2 Oeste 15 Este 0 -- -- 40
2019-08-06 22:00:00 30.4 8 Este 17 Este 0 -- -- 30
2019-08-06 21:00:00 32.3 11 Este 23 Este 0 -- -- 25
2019-08-06 20:00:00 33.9 13 Este 22 Este 0 -- -- 24
2019-08-06 19:00:00 34.5 13 Este 23 Este 0 -- -- 23
2019-08-06 18:00:00 35.8 7 Nordeste 23 Nordeste 0 -- -- 22
2019-08-06 17:00:00 35.5 11 Norte 21 Norte 0 -- -- 28
2019-08-06 16:00:00 33.9 9 Norte 22 Norte 0 -- -- 30
2019-08-06 15:00:00 34 12 Norte 23 Norte 0 -- -- 31
2019-08-06 14:00:00 33.4 7 Nordeste 27 Noroeste 0 -- -- 30
2019-08-06 13:00:00 31.4 7 Este 13 Este 0 -- -- 33
2019-08-06 12:00:00 29.7 5 Nordeste 13 Nordeste 0 -- -- 41
2019-08-06 11:00:00 26.3 4 Nordeste 15 Oeste 0 -- -- 49
2019-08-06 10:00:00 24.5 12 Oeste 22 Oeste 0 -- -- 54
2019-08-06 09:00:00 22.5 10 Oeste 19 Sudoeste 0 -- -- 60
2019-08-06 08:00:00 19.1 5 Este 10 Sudeste 0 -- -- 74
2019-08-06 07:00:00 18 8 Sudeste 11 Sudeste 0 -- -- 78
2019-08-06 06:00:00 18 5 Sudeste 10 Sudeste 0 -- -- 79
2019-08-06 05:00:00 19.4 3 Sur 9 Sudeste 0 -- -- 74
2019-08-06 04:00:00 20.3 4 Este 15 Oeste 0 -- -- 71
2019-08-06 03:00:00 20.7 4 Sudeste 11 Noroeste 0 -- -- 66
2019-08-06 02:00:00 21.7 10 Noroeste 13 Noroeste 0 -- -- 63
2019-08-06 01:00:00 24.1 5 Noroeste 22 Este 0 -- -- 55
2019-08-06 00:00:00 26.6 12 Sudeste 18 Este 0 -- -- 48
2019-08-05 23:00:00 27 4 Sur 11 Este 0 -- -- 46
2019-08-05 22:00:00 29.3 8 Este 24 Este 0 -- -- 41
2019-08-05 21:00:00 31.6 13 Este 32 Este 0 -- -- 35
2019-08-05 20:00:00 34 12 Este 25 Nordeste 0 -- -- 28
2019-08-05 19:00:00 34.5 15 Este 28 Este 0 -- -- 23
2019-08-05 18:00:00 34.6 11 Nordeste 27 Este 0 -- -- 26
2019-08-05 17:00:00 34.4 8 Este 23 Este 0 -- -- 29
2019-08-05 16:00:00 33.3 13 Este 24 Este 0 -- -- 32
2019-08-05 15:00:00 33.2 10 Norte 19 Norte 0 -- -- 35
2019-08-05 14:00:00 32.2 7 Nordeste 17 Nordeste 0 -- -- 37
2019-08-05 13:00:00 30.1 4 Nordeste 13 Sudeste 0 -- -- 41
2019-08-05 12:00:00 -- -- -- -- -- -- -- -- --
2019-08-05 11:00:00 25.8 6 Oeste 16 Oeste 0 -- -- 52
2019-08-05 10:00:00 23 12 Oeste 27 Oeste 0 -- -- 60
2019-08-05 09:00:00 21.1 15 Oeste 22 Oeste 0 -- -- 67
2019-08-05 08:00:00 19.5 5 Norte 17 Sudoeste 0 -- -- 74
2019-08-05 07:00:00 18.6 9 Oeste 19 Sudoeste 0 -- -- 77
2019-08-05 06:00:00 19 8 Oeste 30 Sudoeste 0 -- -- 75
2019-08-05 05:00:00 19.8 21 Oeste 37 Noroeste 0 -- -- 71
2019-08-05 04:00:00 20.5 22 Oeste 41 Noroeste 0 -- -- 69
2019-08-05 03:00:00 21.1 27 Oeste 39 Oeste 0 -- -- 67
2019-08-05 02:00:00 22.1 21 Oeste 37 Oeste 0 -- -- 62
2019-08-05 01:00:00 23.6 9 Noroeste 18 Oeste 0 -- -- 60
2019-08-05 00:00:00 24.6 7 Oeste 10 Oeste 0 -- -- 59
2019-08-04 23:00:00 27.1 0 Calma 23 Este 0 -- -- 52
2019-08-04 22:00:00 29.4 17 Sudeste 36 Este 0 -- -- 46
2019-08-04 21:00:00 30.9 22 Este 41 Este 0 -- -- 42
2019-08-04 20:00:00 34.2 15 Este 26 Este 0 -- -- 26
2019-08-04 19:00:00 34.6 13 Este 26 Este 0 -- -- 24
2019-08-04 18:00:00 35 15 Este 30 Este 0 -- -- 25
2019-08-04 17:00:00 35.2 14 Este 27 Este 0 -- -- 26
2019-08-04 16:00:00 35.3 8 Norte 20 Norte 0 -- -- 28
2019-08-04 15:00:00 34.5 10 Nordeste 25 Norte 0 -- -- 32
2019-08-04 14:00:00 33.5 9 Norte 16 Nordeste 0 -- -- 35
2019-08-04 13:00:00 31.9 5 Norte 17 Norte 0 -- -- 38
2019-08-04 12:00:00 29 6 Norte 12 Norte 0 -- -- 45
2019-08-04 11:00:00 27.9 4 Norte 9 Nordeste 0 -- -- 48
2019-08-04 10:00:00 25.4 3 Nordeste 8 Nordeste 0 -- -- 54
2019-08-04 09:00:00 23.3 3 Nordeste 6 Sudeste 0 -- -- 60
2019-08-04 08:00:00 18.2 6 Sudeste 10 Sudeste 0 -- -- 80
2019-08-04 07:00:00 17.1 6 Sudeste 8 Sudeste 0 -- -- 84
2019-08-04 06:00:00 18.1 7 Sudeste 9 Sudeste 0 -- -- 82
2019-08-04 05:00:00 18.3 2 Oeste 10 Sudeste 0 -- -- 82
2019-08-04 04:00:00 19.2 3 Sudoeste 9 Sudeste 0 -- -- 80
2019-08-04 03:00:00 20.8 5 Sudeste 10 Oeste 0 -- -- 73
2019-08-04 02:00:00 21.8 2 Nordeste 9 Sudeste 0 -- -- 69
2019-08-04 01:00:00 22.5 5 Sudeste 9 Sudeste 0 -- -- 66
2019-08-04 00:00:00 24.3 6 Sudeste 15 Sudeste 0 -- -- 61
2019-08-03 23:00:00 26.3 6 Sur 25 Este 0 -- -- 53
2019-08-03 22:00:00 28.7 17 Este 32 Este 0 -- -- 48
2019-08-03 21:00:00 31.1 19 Este 38 Este 0 -- -- 38
2019-08-03 20:00:00 33.8 12 Este 24 Este 0 -- -- 28
2019-08-03 19:00:00 34.8 9 Nordeste 26 Este 0 -- -- 24
2019-08-03 18:00:00 34.7 9 Este 20 Este 0 -- -- 24
2019-08-03 17:00:00 35.3 7 Nordeste 24 Sudeste 0 -- -- 25
2019-08-03 16:00:00 34.1 9 Nordeste 25 Este 0 -- -- 27
2019-08-03 15:00:00 33 9 Nordeste 22 Este 0 -- -- 29
2019-08-03 14:00:00 31.9 8 Norte 22 Este 0 -- -- 30
2019-08-03 13:00:00 31 8 Norte 18 Norte 0 -- -- 32
2019-08-03 12:00:00 28.8 9 Norte 17 Norte 0 -- -- 35
2019-08-03 11:00:00 27 8 Norte 14 Norte 0 -- -- 37
2019-08-03 10:00:00 25.8 4 Este 8 Norte 0 -- -- 41
2019-08-03 09:00:00 23.1 4 Este 9 Sudeste 0 -- -- 48
2019-08-03 08:00:00 19.2 5 Sudeste 10 Sur 0 -- -- 59
2019-08-03 07:00:00 17.8 8 Sudeste 11 Sudeste 0 -- -- 64
2019-08-03 06:00:00 17.9 5 Sudeste 10 Noroeste 0 -- -- 64
2019-08-03 05:00:00 20.9 4 Norte 18 Oeste 0 -- -- 54
2019-08-03 04:00:00 21.4 6 Noroeste 13 Noroeste 0 -- -- 49
2019-08-03 03:00:00 22.7 4 Oeste 14 Oeste 0 -- -- 44
2019-08-03 02:00:00 23.2 5 Sudoeste 17 Oeste 0 -- -- 45
2019-08-03 01:00:00 24 7 Oeste 23 Oeste 0 -- -- 42
2019-08-03 00:00:00 24.9 8 Oeste 17 Oeste 0 -- -- 35
2019-08-02 23:00:00 26.1 2 Oeste 24 Oeste 0 -- -- 32
2019-08-02 22:00:00 27 12 Oeste 15 Oeste 0 -- -- 35
2019-08-02 21:00:00 28.4 9 Oeste 18 Noroeste 0 -- -- 31
2019-08-02 20:00:00 31.8 11 Noroeste 20 Norte 0 -- -- 26
2019-08-02 19:00:00 32.5 14 Norte 22 Noroeste 0 -- -- 22
2019-08-02 18:00:00 32.9 12 Norte 23 Oeste 0 -- -- 27
2019-08-02 17:00:00 32.9 12 Noroeste 22 Norte 0 -- -- 30
2019-08-02 16:00:00 32.2 6 Nordeste 20 Norte 0 -- -- 33
2019-08-02 15:00:00 31.6 10 Noroeste 31 Noroeste 0 -- -- 35
2019-08-02 14:00:00 29.5 13 Noroeste 27 Oeste 0 -- -- 39
2019-08-02 13:00:00 28.1 15 Noroeste 28 Oeste 0 -- -- 42
2019-08-02 12:00:00 25.9 16 Noroeste 28 Oeste 0 -- -- 48
2019-08-02 11:00:00 24.2 20 Noroeste 29 Oeste 0 -- -- 54
2019-08-02 10:00:00 21.9 15 Oeste 35 Oeste 0 -- -- 62
2019-08-02 09:00:00 20.1 8 Oeste 30 Oeste 0 -- -- 68
2019-08-02 08:00:00 18.5 5 Oeste 24 Oeste 0 -- -- 76
2019-08-02 07:00:00 17.5 8 Noroeste 25 Oeste 0 -- -- 81
2019-08-02 06:00:00 17.8 6 Norte 28 Oeste 0 -- -- 79
2019-08-02 05:00:00 18.2 12 Oeste 35 Oeste 0 -- -- 78
2019-08-02 04:00:00 18.7 13 Oeste 51 Oeste 0 -- -- 76
2019-08-02 03:00:00 19.6 34 Oeste 58 Oeste 0 -- -- 73
2019-08-02 02:00:00 20.2 38 Oeste 53 Oeste 0 -- -- 71
2019-08-02 01:00:00 21 37 Oeste 54 Oeste 0 -- -- 69
2019-08-02 00:00:00 22 37 Oeste 52 Oeste 0 -- -- 66
2019-08-01 23:00:00 23.3 27 Oeste 48 Oeste 0 -- -- 64
2019-08-01 22:00:00 25.8 19 Noroeste 29 Noroeste 0 -- -- 48
2019-08-01 21:00:00 28.4 14 Norte 21 Norte 0 -- -- 41
2019-08-01 20:00:00 31.9 5 Nordeste 23 Nordeste 0 -- -- 30
2019-08-01 19:00:00 32.7 7 Nordeste 22 Nordeste 0 -- -- 29
2019-08-01 18:00:00 32.7 10 Nordeste 22 Norte 0 -- -- 29
2019-08-01 17:00:00 32.3 11 Nordeste 22 Nordeste 0 -- -- 32
2019-08-01 16:00:00 31.7 9 Nordeste 18 Este 0 -- -- 34
2019-08-01 15:00:00 31.2 7 Nordeste 18 Norte 0 -- -- 37
2019-08-01 14:00:00 29.2 5 Nordeste 15 Sudeste 0 -- -- 43
2019-08-01 13:00:00 26.3 4 Sur 18 Norte 0 -- -- 52
2019-08-01 12:00:00 25.4 8 Nordeste 18 Noroeste 0 -- -- 58
2019-08-01 11:00:00 23.7 8 Norte 18 Noroeste 0 -- -- 65
2019-08-01 10:00:00 20.6 5 Noroeste 10 Noroeste 0 -- -- 78
2019-08-01 09:00:00 19.6 6 Sudeste 16 Este 0 -- -- 83
2019-08-01 08:00:00 19 10 Este 21 Este 0 -- -- 87
2019-08-01 07:00:00 19 9 Este 18 Este 0 -- -- 88
2019-08-01 06:00:00 19.1 10 Este 20 Este 0 -- -- 88
2019-08-01 05:00:00 19.1 7 Nordeste 13 Nordeste 0 -- -- 88
2019-08-01 04:00:00 17.8 3 Norte 9 Este 0 -- -- 90
2019-08-01 03:00:00 19.6 5 Este 11 Este 0 -- -- 84
2019-08-01 02:00:00 20.2 3 Sur 13 Este 0 -- -- 78
2019-08-01 01:00:00 21.7 10 Este 19 Este 0 -- -- 72
2019-08-01 00:00:00 22.6 6 Este 17 Este 0 -- -- 66
2019-07-31 23:00:00 24 6 Este 23 Este 0 -- -- 62
2019-07-31 22:00:00 25.3 14 Este 28 Este 0 -- -- 55
2019-07-31 21:00:00 26.9 12 Este 29 Este 0 -- -- 49
2019-07-31 20:00:00 28.6 13 Este 27 Este 0 -- -- 41
2019-07-31 19:00:00 29.8 14 Nordeste 31 Este 0 -- -- 35
2019-07-31 18:00:00 29 14 Este 30 Este 0 -- -- 34
2019-07-31 17:00:00 28.4 17 Este 32 Sudeste 0 -- -- 32
2019-07-31 16:00:00 27.9 13 Sudeste 28 Este 0 -- -- 31
2019-07-31 15:00:00 26.6 15 Este 30 Sudeste 0 -- -- 33
2019-07-31 14:00:00 25.1 12 Sudeste 24 Este 0 -- -- 33
2019-07-31 13:00:00 24.1 9 Sudeste 19 Nordeste 0 -- -- 34
2019-07-31 12:00:00 21.5 8 Este 18 Sudeste 0 -- -- 40
2019-07-31 11:00:00 20.8 10 Noroeste 25 Oeste -- -- -- 43
2019-07-31 10:00:00 18.5 13 Oeste 25 Noroeste 0 -- -- 49
2019-07-31 09:00:00 17 16 Noroeste 26 Noroeste 0 -- -- 55
2019-07-31 08:00:00 14.9 7 Oeste 24 Oeste 0 -- -- 63
2019-07-31 07:00:00 14.1 7 Nordeste 33 Noroeste 0 -- -- 66
2019-07-31 06:00:00 14.1 16 Noroeste 48 Noroeste 0 -- -- 66
2019-07-31 05:00:00 14.8 28 Oeste 49 Oeste 0 -- -- 63
2019-07-31 04:00:00 15.2 22 Oeste 46 Oeste 0 -- -- 61
2019-07-31 03:00:00 15.4 10 Oeste 29 Sudoeste 0 -- -- 61
2019-07-31 02:00:00 15 18 Oeste 38 Oeste 0 -- -- 61
2019-07-31 01:00:00 15.6 24 Oeste 37 Noroeste 0 -- -- 57
2019-07-31 00:00:00 16.4 22 Oeste 38 Noroeste 0 -- -- 55
2019-07-30 23:00:00 17.5 20 Oeste 37 Noroeste 0 -- -- 52
2019-07-30 22:00:00 19.5 20 Noroeste 43 Oeste 0 -- -- 46
2019-07-30 21:00:00 21.2 22 Noroeste 36 Noroeste 0 -- -- 41
2019-07-30 20:00:00 23.8 22 Noroeste 37 Oeste 0 -- -- 36
2019-07-30 19:00:00 25 22 Noroeste 42 Oeste 0 -- -- 32
2019-07-30 18:00:00 25.7 30 Noroeste 44 Noroeste 0 -- -- 32
2019-07-30 17:00:00 26.2 29 Noroeste 44 Oeste 0 -- -- 32
2019-07-30 16:00:00 26 23 Oeste 40 Oeste 0 -- -- 33
2019-07-30 15:00:00 25.6 25 Noroeste 44 Noroeste 0 -- -- 33
2019-07-30 14:00:00 24.4 26 Oeste 44 Noroeste 0 -- -- 36
2019-07-30 13:00:00 23.5 25 Noroeste 43 Oeste 0 -- -- 39
2019-07-30 12:00:00 22.3 27 Noroeste 55 Oeste 0 -- -- 44
2019-07-30 11:00:00 21 30 Oeste 54 Oeste 0 -- -- 48
2019-07-30 10:00:00 18.9 33 Oeste 59 Oeste 0 -- -- 56
2019-07-30 09:00:00 17.4 33 Oeste 51 Oeste 0 -- -- 61
2019-07-30 08:00:00 15.9 21 Oeste 40 Noroeste 0 -- -- 70
2019-07-30 07:00:00 15 15 Oeste 40 Oeste 0 -- -- 74
2019-07-30 06:00:00 15.3 15 Noroeste 41 Oeste 0 -- -- 72
2019-07-30 05:00:00 15.9 27 Oeste 49 Oeste 0 -- -- 74
2019-07-30 04:00:00 16.2 25 Oeste 41 Oeste 0 -- -- 73
2019-07-30 03:00:00 17.2 32 Oeste 66 Oeste 0 -- -- 67
2019-07-30 02:00:00 18.4 49 Oeste 75 Oeste 0 -- -- 62
2019-07-30 01:00:00 19.3 49 Oeste 66 Oeste 0 -- -- 60
2019-07-30 00:00:00 20.4 45 Oeste 63 Oeste 0 -- -- 61
2019-07-29 23:00:00 22.4 35 Oeste 46 Oeste 0 -- -- 54
2019-07-29 22:00:00 28.7 8 Este 19 Este 0 -- -- 29
2019-07-29 21:00:00 29.7 4 Este 17 Sudeste 0 -- -- 25
2019-07-29 20:00:00 31.8 10 Este 24 Nordeste 0 -- -- 23
2019-07-29 19:00:00 32.7 12 Este 30 Este 0 -- -- 21
2019-07-29 18:00:00 32.8 10 Este 28 Este 0 -- -- 20
2019-07-29 17:00:00 32.7 14 Este 25 Este 0 -- -- 21
2019-07-29 16:00:00 32.7 13 Norte 22 Norte 0 -- -- 20
2019-07-29 15:00:00 32 9 Norte 22 Norte 0 -- -- 22
2019-07-29 14:00:00 31.3 9 Norte 21 Nordeste 0 -- -- 23
2019-07-29 13:00:00 29.2 8 Este 19 Este 0 -- -- 27
2019-07-29 12:00:00 28.1 6 Sudeste 15 Este 0 -- -- 29
2019-07-29 11:00:00 26.1 6 Sudeste 14 Sudeste 0 -- -- 30
2019-07-29 10:00:00 24.9 7 Sudeste 11 Sudeste 0 -- -- 30
2019-07-29 09:00:00 23.1 2 Sudeste 7 Sudeste 0 -- -- 39
2019-07-29 08:00:00 16.3 2 Sudeste 13 Sudeste 0 -- -- 57
2019-07-29 07:00:00 13.6 8 Sudeste 12 Sudeste 0 -- -- 63
2019-07-29 06:00:00 14 7 Sudeste 13 Sudeste 0 -- -- 60
2019-07-29 05:00:00 14.6 5 Sudeste 13 Sudeste 0 -- -- 61
2019-07-29 04:00:00 15.8 9 Sudeste 13 Sudeste 0 -- -- 60
2019-07-29 03:00:00 16.4 10 Sudeste 15 Sudeste 0 -- -- 59
2019-07-29 02:00:00 17.5 10 Sudeste 15 Sudeste 0 -- -- 55
2019-07-29 01:00:00 16.9 7 Sudeste 12 Sudeste 0 -- -- 57
2019-07-29 00:00:00 17.6 4 Sudeste 10 Oeste 0 -- -- 54
2019-07-28 23:00:00 17.7 9 Oeste 12 Oeste 0 -- -- 55
2019-07-28 22:00:00 18.6 7 Oeste 18 Noroeste 0 -- -- 51
2019-07-28 21:00:00 22.7 13 Noroeste 28 Noroeste 0 -- -- 41
2019-07-28 20:00:00 25.1 16 Noroeste 29 Noroeste 0 -- -- 37
2019-07-28 19:00:00 25.8 15 Noroeste 34 Oeste 0 -- -- 35
2019-07-28 18:00:00 26 19 Oeste 34 Oeste 0 -- -- 34
2019-07-28 17:00:00 26.1 17 Noroeste 36 Noroeste 0 -- -- 34
2019-07-28 16:00:00 26.1 22 Oeste 38 Oeste 0 -- -- 34
2019-07-28 15:00:00 25.4 24 Noroeste 41 Oeste 0 -- -- 35
2019-07-28 14:00:00 24.2 26 Oeste 41 Noroeste 0 -- -- 35
2019-07-28 13:00:00 23.1 28 Oeste 49 Oeste 0 -- -- 42
2019-07-28 12:00:00 21.6 34 Oeste 53 Oeste 0 -- -- 47
2019-07-28 11:00:00 19.9 36 Oeste 51 Oeste 0 -- -- 52
2019-07-28 10:00:00 18.5 34 Oeste 49 Oeste 0 -- -- 56
2019-07-28 09:00:00 16.6 28 Oeste 43 Oeste 0 -- -- 64
2019-07-28 08:00:00 14.9 24 Oeste 41 Sudoeste 0 -- -- 70
2019-07-28 07:00:00 14 38 Oeste 64 Oeste 0 -- -- 73
2019-07-28 06:00:00 14.3 39 Oeste 62 Oeste 0 -- -- 72
2019-07-28 05:00:00 14.5 39 Oeste 60 Oeste 0 -- -- 70
2019-07-28 04:00:00 14.5 35 Oeste 49 Oeste 0 -- -- 73
2019-07-28 03:00:00 14.7 33 Oeste 51 Noroeste 0 -- -- 72
2019-07-28 02:00:00 14.6 23 Oeste 40 Oeste 0 -- -- 74
2019-07-28 01:00:00 15.2 17 Oeste 42 Noroeste 0 -- -- 72
2019-07-28 00:00:00 15.8 30 Oeste 45 Noroeste 0 -- -- 72
2019-07-27 23:00:00 16.4 30 Oeste 51 Oeste 0 -- -- 68
2019-07-26 12:00:00 -- -- -- -- -- -- -- -- --
2019-07-26 11:00:00 22.5 25 Oeste 33 Sudoeste 0 -- -- 70
2019-07-26 10:00:00 21.5 21 Sudoeste 43 Sudoeste 0 -- -- 74
2019-07-26 09:00:00 21.1 8 Sudoeste 21 Oeste 0 -- -- 75
2019-07-26 08:00:00 20.3 13 Oeste 20 Oeste 0 -- -- 79
2019-07-26 07:00:00 20.4 17 Noroeste 32 Noroeste 0 -- -- 80
2019-07-26 06:00:00 21 15 Oeste 26 Oeste 0 -- -- 76
2019-07-26 05:00:00 22 13 Noroeste 18 Noroeste 0 -- -- 67
2019-07-26 04:00:00 22.4 8 Sur 12 Sudoeste 0 -- -- 63
2019-07-26 03:00:00 23.6 5 Sur 12 Sur 0 -- -- 59
2019-07-26 02:00:00 24.5 3 Este 11 Sudoeste 0 -- -- 56
2019-07-26 01:00:00 25.4 3 Sudoeste 23 Este 0 -- -- 48
2019-07-26 00:00:00 27.6 14 Este 27 Sudeste 0.2 -- -- 38
2019-07-25 23:00:00 28.6 12 Sur 23 Sur 0 -- -- 38
2019-07-25 22:00:00 29.2 5 Sudeste 13 Sur 0 -- -- 31
2019-07-25 21:00:00 29 9 Sudeste 13 Sudeste 0 -- -- 32
2019-07-25 20:00:00 -- 8 Sur 37 Este 0 -- -- --
2019-07-25 19:00:00 32.1 18 Este 28 Este 0 -- -- 25
2019-07-25 18:00:00 32.7 11 Este 31 Sudeste 0 -- -- 22
2019-07-25 17:00:00 32.8 19 Sudeste 35 Sur 0 -- -- 23
2019-07-25 16:00:00 35.7 11 Sudeste 30 Nordeste 0 -- -- 21
2019-07-25 15:00:00 36.2 11 Este 26 Este 0 -- -- 22
2019-07-25 14:00:00 34.4 15 Este 25 Este 0 -- -- 25
2019-07-25 13:00:00 33.2 15 Este 26 Este 0 -- -- 27
2019-07-25 12:00:00 31.7 15 Este 21 Este 0 -- -- 34
2019-07-25 11:00:00 30.1 8 Este 14 Este 0 -- -- 41
2019-07-25 10:00:00 27.4 4 Sudeste 10 Este 0 -- -- 50
2019-07-25 09:00:00 25.2 6 Sudeste 14 Sudeste 0 -- -- 60
2019-07-25 08:00:00 22.8 7 Sudeste 15 Sudeste 0 -- -- 71
2019-07-25 07:00:00 21.2 2 Sur 9 Sudoeste 0 -- -- 72
2019-07-25 06:00:00 22 3 Sur 12 Sur 0 -- -- 68
2019-07-25 05:00:00 21.8 4 Sur 9 Sur 0 -- -- 67
2019-07-25 04:00:00 21.6 5 Sudeste 10 Sudeste 0 -- -- 60
2019-07-25 03:00:00 23.6 3 Sudeste 9 Este 0 -- -- 47
2019-07-25 02:00:00 25.6 3 Este 9 Sudeste 0 -- -- 35
2019-07-25 01:00:00 28.6 4 Sur 15 Sudeste 0 -- -- 28
2019-07-25 00:00:00 30 8 Sudeste 17 Sudeste 0 -- -- 26
2019-07-24 23:00:00 30.8 9 Sudeste 32 Nordeste 0 -- -- 25
2019-07-24 22:00:00 32.3 21 Este 33 Este 0 -- -- 23
2019-07-24 21:00:00 34.3 15 Este 26 Nordeste 0 -- -- 20
2019-07-24 20:00:00 36 11 Noroeste 46 Sudoeste 0 -- -- 19
2019-07-24 19:00:00 36.4 15 Este 35 Este 0 -- -- 20
2019-07-24 18:00:00 37.7 14 Este 37 Este 0 -- -- 19
2019-07-24 17:00:00 37.4 20 Este 39 Nordeste 0 -- -- 18
2019-07-24 16:00:00 36.8 12 Este 27 Este 0 -- -- 19
2019-07-24 15:00:00 37.4 13 Este 30 Este 0 -- -- 19
2019-07-24 14:00:00 36.4 11 Este 30 Este 0 -- -- 20
2019-07-24 13:00:00 35.6 14 Este 25 Este 0 -- -- 21
2019-07-24 12:00:00 34.5 9 Este 17 Este 0 -- -- 21
2019-07-24 11:00:00 33.5 6 Este 14 Sudeste 0 -- -- 24
2019-07-24 10:00:00 31.4 8 Sudeste 14 Sudeste 0 -- -- 26
2019-07-24 09:00:00 28.9 4 Sur 9 Sur 0 -- -- 34
2019-07-24 08:00:00 22.6 7 Sudeste 13 Sudeste 0 -- -- 47
2019-07-24 07:00:00 21.1 12 Sudeste 15 Sudeste 0 -- -- 48
2019-07-24 06:00:00 21.6 11 Sudeste 14 Sudeste 0 -- -- 46
2019-07-24 05:00:00 22.6 4 Sudeste 12 Sudeste 0 -- -- 43
2019-07-24 04:00:00 24.7 6 Sudeste 15 Sudoeste 0 -- -- 38
2019-07-24 03:00:00 24.6 8 Sudoeste 13 Oeste 0 -- -- 37
2019-07-24 02:00:00 27 6 Sudeste 22 Oeste 0 -- -- 32
2019-07-24 01:00:00 30.4 15 Sudoeste 44 Sudoeste 0 -- -- 26
2019-07-24 00:00:00 29.9 6 Sur 18 Sur 0 -- -- 24
2019-07-23 23:00:00 31.9 8 Sur 17 Sur 0 -- -- 21
2019-07-23 22:00:00 31.9 11 Sudoeste 19 Oeste 0 -- -- 21
2019-07-23 21:00:00 33.4 12 Oeste 40 Oeste 0 -- -- 19
2019-07-23 20:00:00 33.7 25 Oeste 39 Sudoeste 0 -- -- 20
2019-07-23 19:00:00 36.1 17 Este 34 Este 0 -- -- 20
2019-07-23 18:00:00 38 18 Este 40 Este 0 -- -- 16
2019-07-23 17:00:00 38.3 17 Este 32 Este 0 -- -- 16
2019-07-23 16:00:00 37.7 14 Este 31 Este 0 -- -- 16
2019-07-23 15:00:00 36.9 15 Este 30 Este 0 -- -- 17
2019-07-23 14:00:00 36.3 10 Este 25 Este 0 -- -- 18
2019-07-23 13:00:00 34.8 15 Este 22 Este 0 -- -- 20
2019-07-23 12:00:00 33 11 Este 17 Sudeste 0 -- -- 24
2019-07-23 11:00:00 32.2 3 Norte 9 Norte 0 -- -- 25
2019-07-23 10:00:00 28.8 4 Oeste 7 Este 0 -- -- 30
2019-07-23 09:00:00 25 2 Sudeste 7 Sudeste 0 -- -- 36
2019-07-23 08:00:00 21.3 4 Sur 8 Sudeste 0 -- -- 45
2019-07-23 07:00:00 19.8 0 Calma 11 Sudeste 0 -- -- 45
2019-07-23 06:00:00 20.7 6 Sudeste 10 Sur 0 -- -- 46
2019-07-23 05:00:00 22.8 6 Sudoeste 19 Este 0 -- -- 37
2019-07-23 04:00:00 21.5 9 Sudeste 18 Sudeste 0 -- -- 40
2019-07-23 03:00:00 25.3 5 Sur 12 Sudeste 0 -- -- 29
2019-07-23 02:00:00 24 9 Sudeste 14 Sudeste 0 -- -- 37
2019-07-23 01:00:00 23.5 3 Noroeste 9 Sur 0 -- -- 37
2019-07-23 00:00:00 27.4 6 Sur 15 Sur 0 -- -- 29
2019-07-22 23:00:00 26.9 5 Sudoeste 12 Sur 0 -- -- 29
2019-07-22 22:00:00 29.1 4 Oeste 31 Nordeste 0 -- -- 31
2019-07-22 21:00:00 33.9 15 Nordeste 33 Este 0 -- -- 22
2019-07-22 20:00:00 35.8 13 Este 29 Este 0 -- -- 21
2019-07-22 19:00:00 36.8 18 Este 32 Este 0 -- -- 19
2019-07-22 18:00:00 37.6 18 Este 33 Este 0 -- -- 18
2019-07-22 17:00:00 37.6 12 Nordeste 28 Este 0 -- -- 17
2019-07-22 16:00:00 35.9 16 Este 33 Nordeste 0 -- -- 19
2019-07-22 15:00:00 35.6 12 Este 27 Este 0 -- -- 21
2019-07-22 14:00:00 33.7 15 Este 24 Este 0 -- -- 22
2019-07-22 13:00:00 32.6 11 Este 21 Este 0 -- -- 25
2019-07-22 12:00:00 31.4 7 Norte 17 Norte 0 -- -- 30
2019-07-22 11:00:00 29.3 7 Norte 14 Norte 0 -- -- 40
2019-07-22 10:00:00 27.8 3 Nordeste 6 Norte 0 -- -- 44
2019-07-22 09:00:00 25.1 2 Nordeste 6 Sudeste 0 -- -- 51
2019-07-22 08:00:00 19.9 6 Sudeste 13 Sudeste 0 -- -- 65
2019-07-22 07:00:00 17.8 5 Sudeste 12 Sudeste 0 -- -- 71
2019-07-22 06:00:00 18.5 3 Norte 9 Sudeste 0 -- -- 67
2019-07-22 05:00:00 20.2 7 Sudeste 12 Sudeste 0 -- -- 63
2019-07-22 04:00:00 21 10 Sudeste 13 Sudeste 0 -- -- 61
2019-07-22 03:00:00 21.1 4 Sudeste 12 Sudeste 0 -- -- 62
2019-07-22 02:00:00 21.5 3 Noroeste 10 Sudeste 0 -- -- 60
2019-07-22 01:00:00 23.5 4 Sudeste 8 Sudeste 0 -- -- 54
2019-07-22 00:00:00 26.9 4 Este 15 Este 0 -- -- 43
2019-07-21 23:00:00 27.2 5 Este 24 Este 0 -- -- 40
2019-07-21 22:00:00 29.3 18 Este 34 Este 0 -- -- 36
2019-07-21 21:00:00 31.2 15 Este 24 Este 0 -- -- 33
2019-07-21 20:00:00 33.3 16 Este 29 Este 0 -- -- 29
2019-07-21 19:00:00 34.8 14 Nordeste 32 Nordeste 0 -- -- 28
2019-07-21 18:00:00 35.4 13 Nordeste 31 Este 0 -- -- 27
2019-07-21 17:00:00 34.9 12 Este 30 Este 0 -- -- 30
2019-07-21 16:00:00 34 14 Este 27 Nordeste 0 -- -- 29
2019-07-21 15:00:00 32.7 14 Este 30 Este 0 -- -- 31
2019-07-21 14:00:00 31.3 13 Este 30 Este 0 -- -- 36
2019-07-21 13:00:00 30.3 14 Este 26 Este 0 -- -- 37
2019-07-21 12:00:00 28.3 11 Este 20 Este 0 -- -- 44
2019-07-21 11:00:00 27.1 5 Este 14 Este 0 -- -- 50
2019-07-21 10:00:00 24.7 5 Sur 10 Sur 0 -- -- 57
2019-07-21 09:00:00 22.4 8 Oeste 16 Oeste 0 -- -- 65
2019-07-21 08:00:00 19.6 6 Sudeste 13 Oeste 0 -- -- 78
2019-07-21 07:00:00 18.6 3 Nordeste 15 Oeste 0 -- -- 81
2019-07-21 06:00:00 18.7 9 Oeste 22 Sudoeste 0 -- -- 80
2019-07-21 05:00:00 19.7 7 Oeste 22 Oeste 0 -- -- 77
2019-07-21 04:00:00 20.1 8 Noroeste 24 Oeste 0 -- -- 75
2019-07-21 03:00:00 20.9 18 Oeste 25 Oeste 0 -- -- 72
2019-07-21 02:00:00 21.7 18 Oeste 25 Oeste 0 -- -- 69
2019-07-21 01:00:00 22.7 11 Noroeste 17 Noroeste 0 -- -- 58
2019-07-21 00:00:00 23.7 8 Norte 16 Norte 0 -- -- 56
2019-07-20 23:00:00 26.4 6 Nordeste 11 Este 0 -- -- 49
2019-07-20 22:00:00 28 5 Este 21 Este 0 -- -- 46
2019-07-20 21:00:00 30.4 10 Este 31 Este 0 -- -- 41
2019-07-20 20:00:00 32.4 17 Este 35 Este 0 -- -- 35
2019-07-20 19:00:00 34.6 17 Este 33 Este 0 -- -- 32
2019-07-20 18:00:00 35.7 14 Este 36 Nordeste 0 -- -- 24
2019-07-20 17:00:00 35.8 14 Nordeste 36 Nordeste 0 -- -- 27
2019-07-20 16:00:00 34.9 16 Nordeste 34 Este 0 -- -- 31
2019-07-20 15:00:00 33.8 14 Nordeste 31 Este 0 -- -- 34
2019-07-20 14:00:00 32.4 13 Este 24 Nordeste 0 -- -- 37
2019-07-20 13:00:00 30.5 9 Nordeste 20 Nordeste 0 -- -- 44
2019-07-20 12:00:00 29.1 10 Norte 20 Norte 0 -- -- 49
2019-07-20 11:00:00 26.9 7 Este 15 Sudeste 0 -- -- 58
2019-07-20 10:00:00 24.3 5 Este 12 Este 0 -- -- 67
2019-07-20 09:00:00 22.2 3 Este 8 Este 0 -- -- 75
2019-07-20 08:00:00 18.7 0 Calma 5 Sur 0 -- -- 89
2019-07-20 07:00:00 17.6 0 Calma 5 Sudeste 0 -- -- 92
2019-07-20 06:00:00 18.7 3 Sudeste 12 Sudeste 0 -- -- 87
2019-07-20 05:00:00 17.8 0 Calma 8 Sudeste 0 -- -- 87
2019-07-20 04:00:00 18.8 0 Calma 7 Sudeste 0 -- -- 82
2019-07-20 03:00:00 20.3 2 Sudeste 15 Este 0 -- -- 76
2019-07-20 02:00:00 21.1 2 Nordeste 9 Sudeste 0 -- -- 69
2019-07-20 01:00:00 23.1 6 Sudeste 13 Este 0 -- -- 61
2019-07-20 00:00:00 23.8 6 Noroeste 13 Nordeste 0 -- -- 58
2019-07-19 23:00:00 25.4 5 Este 14 Este 0 -- -- 49
2019-07-19 22:00:00 27.2 9 Este 22 Este 0 -- -- 43
2019-07-19 21:00:00 29.1 16 Este 35 Este 0 -- -- 43
2019-07-19 20:00:00 31.2 17 Este 31 Este 0 -- -- 39
2019-07-19 19:00:00 32.7 14 Este 28 Este 0 -- -- 33
2019-07-19 18:00:00 32.1 19 Este 27 Este 0 -- -- 28
2019-07-19 17:00:00 31.6 14 Este 28 Sudeste 0 -- -- 27
2019-07-19 16:00:00 31.5 17 Este 28 Este 0 -- -- 26
2019-07-19 15:00:00 31.6 10 Nordeste 23 Este 0 -- -- 26
2019-07-19 14:00:00 29.8 9 Este 17 Nordeste 0 -- -- 29
2019-07-19 13:00:00 28.5 7 Este 15 Norte 0 -- -- 30
2019-07-19 12:00:00 27.6 4 Este 13 Nordeste 0 -- -- 33
2019-07-19 11:00:00 25.5 7 Este 14 Nordeste 0 -- -- 34
2019-07-19 10:00:00 24.1 5 Oeste 13 Oeste 0 -- -- 38
2019-07-19 09:00:00 21.2 4 Oeste 17 Oeste 0 -- -- 45
2019-07-19 08:00:00 19.4 4 Nordeste 20 Noroeste 0 -- -- 52
2019-07-19 07:00:00 17.4 6 Oeste 16 Oeste 0 -- -- 64
2019-07-19 06:00:00 18 8 Noroeste 21 Norte 0 -- -- 60
2019-07-19 05:00:00 18.8 8 Oeste 22 Oeste 0 -- -- 55
2019-07-19 04:00:00 19.3 5 Sudoeste 18 Nordeste 0 -- -- 53
2019-07-19 03:00:00 20 7 Este 16 Sur 0 -- -- 49
2019-07-19 02:00:00 20.4 5 Sudoeste 35 Oeste 0 -- -- 45
2019-07-19 01:00:00 21.3 22 Oeste 37 Oeste 0 -- -- 40
2019-07-19 00:00:00 22.3 19 Oeste 35 Oeste 0 -- -- 43